sensor_id;sensor_type;location;lat;lon;timestamp;temperature;humidity
1165;DHT22;571;50.930;6.926;2022-09-09T04:02:46;18.70;98.70
1165;DHT22;571;50.930;6.926;2022-09-09T04:05:15;18.70;98.20
1165;DHT22;571;50.930;6.926;2022-09-09T04:07:42;18.80;98.00
1165;DHT22;571;50.930;6.926;2022-09-09T04:10:08;18.70;99.10
1165;DHT22;571;50.930;6.926;2022-09-09T04:12:37;18.80;98.20
1165;DHT22;571;50.930;6.926;2022-09-09T04:15:05;18.70;98.60
1165;DHT22;571;50.930;6.926;2022-09-09T04:17:32;18.80;98.20
1165;DHT22;571;50.930;6.926;2022-09-09T04:20:00;18.80;98.70
1165;DHT22;571;50.930;6.926;2022-09-09T04:22:27;18.80;98.20
1165;DHT22;571;50.930;6.926;2022-09-09T04:24:54;18.80;98.30
1165;DHT22;571;50.930;6.926;2022-09-09T04:27:21;18.80;98.10
1165;DHT22;571;50.930;6.926;2022-09-09T04:29:47;18.90;98.00
1165;DHT22;571;50.930;6.926;2022-09-09T04:32:14;18.90;97.90
1165;DHT22;571;50.930;6.926;2022-09-09T04:34:41;18.90;98.10
1165;DHT22;571;50.930;6.926;2022-09-09T04:37:09;18.80;98.40
1165;DHT22;571;50.930;6.926;2022-09-09T04:39:36;18.80;98.20
1165;DHT22;571;50.930;6.926;2022-09-09T04:42:03;18.90;98.20
1165;DHT22;571;50.930;6.926;2022-09-09T04:44:29;18.80;98.20
1165;DHT22;571;50.930;6.926;2022-09-09T04:46:56;18.90;98.30
1165;DHT22;571;50.930;6.926;2022-09-09T04:49:23;18.90;98.10
1165;DHT22;571;50.930;6.926;2022-09-09T04:51:49;18.90;98.10
1165;DHT22;571;50.930;6.926;2022-09-09T04:54:18;18.90;98.30
1165;DHT22;571;50.930;6.926;2022-09-09T04:56:45;18.80;98.30
1165;DHT22;571;50.930;6.926;2022-09-09T04:59:12;18.80;98.50
1165;DHT22;571;50.930;6.926;2022-09-09T05:01:38;18.80;98.70
1165;DHT22;571;50.930;6.926;2022-09-09T05:04:06;18.80;98.40
1165;DHT22;571;50.930;6.926;2022-09-09T05:06:34;18.80;98.40
1165;DHT22;571;50.930;6.926;2022-09-09T05:09:02;18.80;98.40
1165;DHT22;571;50.930;6.926;2022-09-09T05:11:31;19.00;97.80
1165;DHT22;571;50.930;6.926;2022-09-09T05:13:59;19.00;97.60
1165;DHT22;571;50.930;6.926;2022-09-09T05:16:26;19.10;97.60
1165;DHT22;571;50.930;6.926;2022-09-09T05:18:53;19.00;98.10
1165;DHT22;571;50.930;6.926;2022-09-09T05:21:21;18.90;98.20
1165;DHT22;571;50.930;6.926;2022-09-09T05:23:50;19.00;97.90
1165;DHT22;571;50.930;6.926;2022-09-09T05:26:20;19.10;97.60
1165;DHT22;571;50.930;6.926;2022-09-09T05:28:49;19.00;97.50
1165;DHT22;571;50.930;6.926;2022-09-09T05:31:17;19.10;97.60
1165;DHT22;571;50.930;6.926;2022-09-09T05:33:45;19.00;97.50
1165;DHT22;571;50.930;6.926;2022-09-09T05:36:13;19.10;97.30
1165;DHT22;571;50.930;6.926;2022-09-09T05:38:41;19.20;97.40
1165;DHT22;571;50.930;6.926;2022-09-09T05:41:08;19.30;97.10
1165;DHT22;571;50.930;6.926;2022-09-09T05:43:36;19.20;97.50
1165;DHT22;571;50.930;6.926;2022-09-09T05:46:06;19.20;97.60
1165;DHT22;571;50.930;6.926;2022-09-09T05:48:34;19.10;97.50
1165;DHT22;571;50.930;6.926;2022-09-09T05:51:03;19.10;97.30
1165;DHT22;571;50.930;6.926;2022-09-09T05:53:31;19.20;97.20
1165;DHT22;571;50.930;6.926;2022-09-09T05:56:00;19.10;97.10
1165;DHT22;571;50.930;6.926;2022-09-09T05:58:29;19.20;97.20
1165;DHT22;571;50.930;6.926;2022-09-09T06:01:01;19.10;97.30
1165;DHT22;571;50.930;6.926;2022-09-09T06:03:29;19.10;97.50
1165;DHT22;571;50.930;6.926;2022-09-09T06:06:00;19.20;97.30
1165;DHT22;571;50.930;6.926;2022-09-09T06:08:27;19.30;96.90
1165;DHT22;571;50.930;6.926;2022-09-09T06:11:01;19.40;96.50
1165;DHT22;571;50.930;6.926;2022-09-09T06:13:29;19.30;97.10
1165;DHT22;571;50.930;6.926;2022-09-09T06:15:56;19.20;97.20
1165;DHT22;571;50.930;6.926;2022-09-09T06:18:23;19.20;96.70
1165;DHT22;571;50.930;6.926;2022-09-09T06:20:56;19.20;96.80
1165;DHT22;571;50.930;6.926;2022-09-09T06:23:24;19.30;97.00
1165;DHT22;571;50.930;6.926;2022-09-09T06:25:51;19.30;96.90
1165;DHT22;571;50.930;6.926;2022-09-09T06:28:26;19.30;96.50
1165;DHT22;571;50.930;6.926;2022-09-09T06:30:57;19.30;96.80
1165;DHT22;571;50.930;6.926;2022-09-09T06:33:25;19.30;96.50
1165;DHT22;571;50.930;6.926;2022-09-09T06:35:52;19.30;96.40
1165;DHT22;571;50.930;6.926;2022-09-09T06:38:21;19.30;96.70
1165;DHT22;571;50.930;6.926;2022-09-09T06:40:51;19.30;96.50
1165;DHT22;571;50.930;6.926;2022-09-09T06:43:19;19.20;96.70
1165;DHT22;571;50.930;6.926;2022-09-09T06:45:53;19.20;96.70
1165;DHT22;571;50.930;6.926;2022-09-09T06:48:20;19.40;96.30
1165;DHT22;571;50.930;6.926;2022-09-09T06:50:46;19.40;96.30
1165;DHT22;571;50.930;6.926;2022-09-09T06:53:16;19.40;96.30
1165;DHT22;571;50.930;6.926;2022-09-09T06:55:45;19.30;96.70
1165;DHT22;571;50.930;6.926;2022-09-09T06:58:13;19.20;96.60
1165;DHT22;571;50.930;6.926;2022-09-09T07:00:40;19.40;96.40
1165;DHT22;571;50.930;6.926;2022-09-09T07:03:07;19.50;96.10
1165;DHT22;571;50.930;6.926;2022-09-09T07:05:33;19.50;96.20
1165;DHT22;571;50.930;6.926;2022-09-09T07:08:01;19.60;95.60
1165;DHT22;571;50.930;6.926;2022-09-09T07:10:27;19.70;95.60
1165;DHT22;571;50.930;6.926;2022-09-09T07:12:55;19.70;95.60
1165;DHT22;571;50.930;6.926;2022-09-09T07:15:22;19.80;95.50
1165;DHT22;571;50.930;6.926;2022-09-09T07:17:50;19.70;94.80
1165;DHT22;571;50.930;6.926;2022-09-09T07:20:18;19.80;94.90
1165;DHT22;571;50.930;6.926;2022-09-09T07:22:45;19.90;95.10
1165;DHT22;571;50.930;6.926;2022-09-09T07:25:12;19.80;94.80
1165;DHT22;571;50.930;6.926;2022-09-09T07:27:39;19.90;94.80
1165;DHT22;571;50.930;6.926;2022-09-09T07:30:09;19.90;94.40
1165;DHT22;571;50.930;6.926;2022-09-09T07:32:35;19.90;94.20
1165;DHT22;571;50.930;6.926;2022-09-09T07:35:02;19.90;94.40
1165;DHT22;571;50.930;6.926;2022-09-09T07:37:29;19.90;94.60
1165;DHT22;571;50.930;6.926;2022-09-09T07:39:56;20.00;94.40
1165;DHT22;571;50.930;6.926;2022-09-09T07:42:22;20.10;94.30
1165;DHT22;571;50.930;6.926;2022-09-09T07:44:49;20.10;94.00
1165;DHT22;571;50.930;6.926;2022-09-09T07:47:21;20.30;93.60
1165;DHT22;571;50.930;6.926;2022-09-09T07:49:50;20.40;93.10
1165;DHT22;571;50.930;6.926;2022-09-09T07:52:17;20.40;92.70
1165;DHT22;571;50.930;6.926;2022-09-09T07:54:45;20.40;92.90
1165;DHT22;571;50.930;6.926;2022-09-09T07:57:12;20.50;92.20
1165;DHT22;571;50.930;6.926;2022-09-09T07:59:39;20.40;91.60
1165;DHT22;571;50.930;6.926;2022-09-09T08:02:06;20.40;91.40
1165;DHT22;571;50.930;6.926;2022-09-09T08:04:34;20.30;91.70
1165;DHT22;571;50.930;6.926;2022-09-09T08:07:01;20.40;91.50
1165;DHT22;571;50.930;6.926;2022-09-09T08:09:28;20.50;91.70
1165;DHT22;571;50.930;6.926;2022-09-09T08:11:58;20.60;91.50
1165;DHT22;571;50.930;6.926;2022-09-09T08:14:25;20.60;90.60
1165;DHT22;571;50.930;6.926;2022-09-09T08:16:52;20.70;91.00
1165;DHT22;571;50.930;6.926;2022-09-09T08:19:19;20.70;90.90
1165;DHT22;571;50.930;6.926;2022-09-09T08:21:47;20.70;90.70
1165;DHT22;571;50.930;6.926;2022-09-09T08:24:14;20.70;90.50
1165;DHT22;571;50.930;6.926;2022-09-09T08:26:43;20.80;90.90
1165;DHT22;571;50.930;6.926;2022-09-09T08:29:12;20.80;91.00
1165;DHT22;571;50.930;6.926;2022-09-09T08:31:45;20.90;90.30
1165;DHT22;571;50.930;6.926;2022-09-09T08:34:12;21.00;90.10
1165;DHT22;571;50.930;6.926;2022-09-09T08:36:41;21.10;90.60
1165;DHT22;571;50.930;6.926;2022-09-09T08:39:11;21.10;88.90
1165;DHT22;571;50.930;6.926;2022-09-09T08:42:04;21.10;88.80
1165;DHT22;571;50.930;6.926;2022-09-09T08:44:44;21.20;87.10
1165;DHT22;571;50.930;6.926;2022-09-09T08:47:19;21.30;86.70
1165;DHT22;571;50.930;6.926;2022-09-09T08:49:57;21.50;84.60
1165;DHT22;571;50.930;6.926;2022-09-09T08:52:29;21.50;84.60
1165;DHT22;571;50.930;6.926;2022-09-09T08:55:02;21.50;83.70
1165;DHT22;571;50.930;6.926;2022-09-09T08:57:31;21.50;84.00
1165;DHT22;571;50.930;6.926;2022-09-09T08:59:59;21.50;83.70
1165;DHT22;571;50.930;6.926;2022-09-09T09:02:30;21.50;83.10
1165;DHT22;571;50.930;6.926;2022-09-09T09:05:09;21.50;84.20
1165;DHT22;571;50.930;6.926;2022-09-09T09:07:51;21.60;83.20
1165;DHT22;571;50.930;6.926;2022-09-09T09:10:34;21.70;82.40
1165;DHT22;571;50.930;6.926;2022-09-09T09:13:10;21.80;82.60
1165;DHT22;571;50.930;6.926;2022-09-09T09:15:38;21.80;83.60
1165;DHT22;571;50.930;6.926;2022-09-09T09:18:08;21.90;82.50
1165;DHT22;571;50.930;6.926;2022-09-09T09:20:42;21.90;82.90
1165;DHT22;571;50.930;6.926;2022-09-09T09:23:18;22.10;83.70
1165;DHT22;571;50.930;6.926;2022-09-09T09:25:50;22.20;82.50
1165;DHT22;571;50.930;6.926;2022-09-09T09:28:22;22.20;80.90
1165;DHT22;571;50.930;6.926;2022-09-09T09:30:54;22.00;81.30
1165;DHT22;571;50.930;6.926;2022-09-09T09:33:25;22.00;80.90
1165;DHT22;571;50.930;6.926;2022-09-09T09:35:53;22.00;81.60
1165;DHT22;571;50.930;6.926;2022-09-09T09:38:22;21.90;82.30
1165;DHT22;571;50.930;6.926;2022-09-09T09:40:52;22.00;81.90
1165;DHT22;571;50.930;6.926;2022-09-09T09:43:24;22.00;82.20
1165;DHT22;571;50.930;6.926;2022-09-09T09:45:51;22.00;82.00
1165;DHT22;571;50.930;6.926;2022-09-09T09:48:18;22.00;82.60
1165;DHT22;571;50.930;6.926;2022-09-09T09:50:49;22.10;82.30
1165;DHT22;571;50.930;6.926;2022-09-09T09:53:22;22.10;82.60
1165;DHT22;571;50.930;6.926;2022-09-09T09:55:54;22.00;82.90
1165;DHT22;571;50.930;6.926;2022-09-09T09:58:23;22.10;82.40
1165;DHT22;571;50.930;6.926;2022-09-09T10:00:52;22.20;82.20
1165;DHT22;571;50.930;6.926;2022-09-09T10:03:26;22.20;82.10
1165;DHT22;571;50.930;6.926;2022-09-09T10:05:54;22.40;81.00
1165;DHT22;571;50.930;6.926;2022-09-09T10:08:22;22.50;81.20
1165;DHT22;571;50.930;6.926;2022-09-09T10:11:09;22.50;79.60
1165;DHT22;571;50.930;6.926;2022-09-09T10:13:57;22.20;79.00
1165;DHT22;571;50.930;6.926;2022-09-09T10:16:38;22.20;80.00
1165;DHT22;571;50.930;6.926;2022-09-09T10:19:12;22.20;79.10
1165;DHT22;571;50.930;6.926;2022-09-09T10:21:55;22.20;79.50
1165;DHT22;571;50.930;6.926;2022-09-09T10:27:20;22.10;79.10
1165;DHT22;571;50.930;6.926;2022-09-09T10:32:48;22.00;80.60
1165;DHT22;571;50.930;6.926;2022-09-09T10:35:27;22.00;79.90
1165;DHT22;571;50.930;6.926;2022-09-09T10:38:12;22.10;79.90
1165;DHT22;571;50.930;6.926;2022-09-09T10:43:42;22.40;79.30
1165;DHT22;571;50.930;6.926;2022-09-09T10:46:17;22.60;78.90
1165;DHT22;571;50.930;6.926;2022-09-09T10:48:59;22.60;77.50
1165;DHT22;571;50.930;6.926;2022-09-09T10:51:38;22.60;78.00
1165;DHT22;571;50.930;6.926;2022-09-09T10:54:16;22.50;78.70
1165;DHT22;571;50.930;6.926;2022-09-09T10:56:51;22.70;77.80
1165;DHT22;571;50.930;6.926;2022-09-09T10:59:26;22.90;77.60
1165;DHT22;571;50.930;6.926;2022-09-09T11:01:57;22.90;78.10
1165;DHT22;571;50.930;6.926;2022-09-09T11:04:28;23.00;76.90
1165;DHT22;571;50.930;6.926;2022-09-09T11:07:01;23.00;76.70
1165;DHT22;571;50.930;6.926;2022-09-09T11:09:36;23.00;77.40
1165;DHT22;571;50.930;6.926;2022-09-09T11:12:12;23.10;77.50
1165;DHT22;571;50.930;6.926;2022-09-09T11:14:49;23.10;75.90
1165;DHT22;571;50.930;6.926;2022-09-09T11:17:21;23.10;75.70
1165;DHT22;571;50.930;6.926;2022-09-09T11:19:50;23.10;76.10
1165;DHT22;571;50.930;6.926;2022-09-09T11:22:23;23.10;75.30
1165;DHT22;571;50.930;6.926;2022-09-09T11:24:54;23.10;75.40
1165;DHT22;571;50.930;6.926;2022-09-09T11:27:27;23.10;74.80
1165;DHT22;571;50.930;6.926;2022-09-09T11:30:16;23.10;75.00
1165;DHT22;571;50.930;6.926;2022-09-09T11:33:06;22.90;74.50
1165;DHT22;571;50.930;6.926;2022-09-09T11:35:45;23.00;75.50
1165;DHT22;571;50.930;6.926;2022-09-09T11:38:19;23.10;75.90
1165;DHT22;571;50.930;6.926;2022-09-09T11:40:55;23.20;75.70
1165;DHT22;571;50.930;6.926;2022-09-09T11:43:24;23.30;75.00
1165;DHT22;571;50.930;6.926;2022-09-09T11:45:55;23.20;73.90
1165;DHT22;571;50.930;6.926;2022-09-09T11:48:28;23.10;73.80
1165;DHT22;571;50.930;6.926;2022-09-09T11:51:04;23.30;73.70
1165;DHT22;571;50.930;6.926;2022-09-09T11:53:33;23.40;73.30
1165;DHT22;571;50.930;6.926;2022-09-09T11:58:55;23.30;73.80
1165;DHT22;571;50.930;6.926;2022-09-09T12:01:39;23.30;72.30
1165;DHT22;571;50.930;6.926;2022-09-09T12:04:21;23.40;72.50
1165;DHT22;571;50.930;6.926;2022-09-09T12:06:55;23.50;72.20
1165;DHT22;571;50.930;6.926;2022-09-09T12:09:28;23.40;71.30
1165;DHT22;571;50.930;6.926;2022-09-09T12:12:06;23.20;71.20
1165;DHT22;571;50.930;6.926;2022-09-09T12:14:37;23.20;71.50
1165;DHT22;571;50.930;6.926;2022-09-09T12:17:19;23.00;71.90
1165;DHT22;571;50.930;6.926;2022-09-09T12:19:47;22.90;72.30
1165;DHT22;571;50.930;6.926;2022-09-09T12:22:23;23.00;73.10
1165;DHT22;571;50.930;6.926;2022-09-09T12:24:58;23.10;72.40
1165;DHT22;571;50.930;6.926;2022-09-09T12:27:33;23.00;71.80
1165;DHT22;571;50.930;6.926;2022-09-09T12:30:07;23.00;71.50
1165;DHT22;571;50.930;6.926;2022-09-09T12:32:36;23.10;72.30
1165;DHT22;571;50.930;6.926;2022-09-09T12:35:09;22.90;80.70
1165;DHT22;571;50.930;6.926;2022-09-09T12:37:39;22.30;87.30
1165;DHT22;571;50.930;6.926;2022-09-09T12:40:19;21.70;91.50
1165;DHT22;571;50.930;6.926;2022-09-09T12:42:46;21.20;92.40
1165;DHT22;571;50.930;6.926;2022-09-09T12:45:19;20.80;93.10
1165;DHT22;571;50.930;6.926;2022-09-09T12:47:50;20.60;92.10
1165;DHT22;571;50.930;6.926;2022-09-09T12:50:21;20.40;93.90
1165;DHT22;571;50.930;6.926;2022-09-09T12:52:50;20.30;91.90
1165;DHT22;571;50.930;6.926;2022-09-09T12:55:21;20.40;94.00
1165;DHT22;571;50.930;6.926;2022-09-09T12:57:51;20.70;92.90
1165;DHT22;571;50.930;6.926;2022-09-09T13:00:20;21.00;93.20
1165;DHT22;571;50.930;6.926;2022-09-09T13:02:51;21.80;91.60
1165;DHT22;571;50.930;6.926;2022-09-09T13:05:21;22.50;89.40
1165;DHT22;571;50.930;6.926;2022-09-09T13:07:48;22.90;86.60
1165;DHT22;571;50.930;6.926;2022-09-09T13:10:21;23.00;84.20
1165;DHT22;571;50.930;6.926;2022-09-09T13:12:49;23.00;83.00
1165;DHT22;571;50.930;6.926;2022-09-09T13:15:21;23.00;82.90
1165;DHT22;571;50.930;6.926;2022-09-09T13:17:55;23.00;81.00
1165;DHT22;571;50.930;6.926;2022-09-09T13:20:23;23.00;82.80
1165;DHT22;571;50.930;6.926;2022-09-09T13:22:52;23.00;84.30
1165;DHT22;571;50.930;6.926;2022-09-09T13:25:25;23.00;82.80
1165;DHT22;571;50.930;6.926;2022-09-09T13:27:59;23.10;80.50
1165;DHT22;571;50.930;6.926;2022-09-09T13:30:28;23.10;79.70
1165;DHT22;571;50.930;6.926;2022-09-09T13:33:06;23.10;81.00
1165;DHT22;571;50.930;6.926;2022-09-09T13:35:33;23.10;80.20
1165;DHT22;571;50.930;6.926;2022-09-09T13:38:07;23.20;80.60
1165;DHT22;571;50.930;6.926;2022-09-09T13:40:35;23.30;80.60
1165;DHT22;571;50.930;6.926;2022-09-09T13:43:02;23.40;79.60
1165;DHT22;571;50.930;6.926;2022-09-09T13:45:30;23.40;78.80
1165;DHT22;571;50.930;6.926;2022-09-09T13:48:10;23.50;80.10
1165;DHT22;571;50.930;6.926;2022-09-09T13:50:37;23.80;80.40
1165;DHT22;571;50.930;6.926;2022-09-09T13:53:04;24.10;76.90
1165;DHT22;571;50.930;6.926;2022-09-09T13:55:30;24.30;77.90
1165;DHT22;571;50.930;6.926;2022-09-09T13:57:59;24.50;76.10
1165;DHT22;571;50.930;6.926;2022-09-09T14:00:29;24.90;75.60
1165;DHT22;571;50.930;6.926;2022-09-09T14:02:56;25.00;74.10
1165;DHT22;571;50.930;6.926;2022-09-09T14:05:25;25.00;74.00
1165;DHT22;571;50.930;6.926;2022-09-09T14:07:52;24.70;73.90
1165;DHT22;571;50.930;6.926;2022-09-09T14:10:20;24.50;75.30
1165;DHT22;571;50.930;6.926;2022-09-09T14:12:47;24.30;75.60
1165;DHT22;571;50.930;6.926;2022-09-09T14:15:14;24.00;75.00
1165;DHT22;571;50.930;6.926;2022-09-09T14:17:41;23.70;76.90
1165;DHT22;571;50.930;6.926;2022-09-09T14:20:10;23.50;77.70
1165;DHT22;571;50.930;6.926;2022-09-09T14:22:42;23.50;78.20
1165;DHT22;571;50.930;6.926;2022-09-09T14:25:09;23.50;77.30
1165;DHT22;571;50.930;6.926;2022-09-09T14:27:36;23.30;76.90
1165;DHT22;571;50.930;6.926;2022-09-09T14:30:05;23.30;77.70
1165;DHT22;571;50.930;6.926;2022-09-09T14:32:32;23.10;79.10
1165;DHT22;571;50.930;6.926;2022-09-09T14:34:59;22.90;91.70
1165;DHT22;571;50.930;6.926;2022-09-09T14:37:27;22.10;93.60
1165;DHT22;571;50.930;6.926;2022-09-09T14:39:56;21.70;97.90
1165;DHT22;571;50.930;6.926;2022-09-09T14:42:22;21.10;99.90
1165;DHT22;571;50.930;6.926;2022-09-09T14:44:49;20.50;99.90
1165;DHT22;571;50.930;6.926;2022-09-09T14:47:16;19.90;99.90
1165;DHT22;571;50.930;6.926;2022-09-09T14:49:43;19.80;99.90
1165;DHT22;571;50.930;6.926;2022-09-09T14:52:09;19.50;99.90
1165;DHT22;571;50.930;6.926;2022-09-09T14:54:36;19.20;99.90
1165;DHT22;571;50.930;6.926;2022-09-09T14:57:04;19.20;99.90
1165;DHT22;571;50.930;6.926;2022-09-09T14:59:31;19.20;99.90
1165;DHT22;571;50.930;6.926;2022-09-09T15:01:58;19.20;99.90
1165;DHT22;571;50.930;6.926;2022-09-09T15:04:29;19.30;99.90
1165;DHT22;571;50.930;6.926;2022-09-09T15:06:56;19.60;99.90
1165;DHT22;571;50.930;6.926;2022-09-09T15:09:23;19.90;99.90
1165;DHT22;571;50.930;6.926;2022-09-09T15:11:50;20.00;99.90
1165;DHT22;571;50.930;6.926;2022-09-09T15:14:18;20.20;99.90
1165;DHT22;571;50.930;6.926;2022-09-09T15:16:45;20.40;99.90
1165;DHT22;571;50.930;6.926;2022-09-09T15:19:11;20.50;99.90
1165;DHT22;571;50.930;6.926;2022-09-09T15:21:38;20.40;99.90
1165;DHT22;571;50.930;6.926;2022-09-09T15:24:05;20.50;99.90
1165;DHT22;571;50.930;6.926;2022-09-09T15:26:34;20.60;99.90
1165;DHT22;571;50.930;6.926;2022-09-09T15:29:03;20.80;99.90
1165;DHT22;571;50.930;6.926;2022-09-09T15:31:31;20.80;99.90
1165;DHT22;571;50.930;6.926;2022-09-09T15:33:59;20.70;99.90
1165;DHT22;571;50.930;6.926;2022-09-09T15:36:28;20.70;99.90
1165;DHT22;571;50.930;6.926;2022-09-09T15:38:56;20.70;99.90
1165;DHT22;571;50.930;6.926;2022-09-09T15:41:23;20.80;99.90
1165;DHT22;571;50.930;6.926;2022-09-09T15:43:50;20.80;99.90
1165;DHT22;571;50.930;6.926;2022-09-09T15:46:29;20.80;99.90
1165;DHT22;571;50.930;6.926;2022-09-09T15:49:03;20.70;99.90
1165;DHT22;571;50.930;6.926;2022-09-09T15:51:31;21.00;99.90
1165;DHT22;571;50.930;6.926;2022-09-09T15:53:58;21.00;99.90
1165;DHT22;571;50.930;6.926;2022-09-09T15:56:27;20.90;99.90
1165;DHT22;571;50.930;6.926;2022-09-09T15:58:55;20.60;99.90
1165;DHT22;571;50.930;6.926;2022-09-09T16:01:22;20.40;99.90
1165;DHT22;571;50.930;6.926;2022-09-09T16:03:49;20.10;99.90
1165;DHT22;571;50.930;6.926;2022-09-09T16:06:19;19.70;99.90
1165;DHT22;571;50.930;6.926;2022-09-09T16:08:49;19.60;99.90
1165;DHT22;571;50.930;6.926;2022-09-09T16:11:18;19.50;99.90
1165;DHT22;571;50.930;6.926;2022-09-09T16:13:47;19.50;99.90
1165;DHT22;571;50.930;6.926;2022-09-09T16:16:16;19.30;99.90
1165;DHT22;571;50.930;6.926;2022-09-09T16:18:45;19.30;99.90
1165;DHT22;571;50.930;6.926;2022-09-09T16:21:14;19.30;99.90
1165;DHT22;571;50.930;6.926;2022-09-09T16:23:44;19.30;99.90
1165;DHT22;571;50.930;6.926;2022-09-09T16:26:12;19.30;99.90
1165;DHT22;571;50.930;6.926;2022-09-09T16:28:38;19.30;99.90
1165;DHT22;571;50.930;6.926;2022-09-09T16:31:06;19.30;99.90
1165;DHT22;571;50.930;6.926;2022-09-09T16:33:33;19.30;99.90
1165;DHT22;571;50.930;6.926;2022-09-09T16:36:05;19.40;99.90
1165;DHT22;571;50.930;6.926;2022-09-09T16:38:32;19.50;99.90
1165;DHT22;571;50.930;6.926;2022-09-09T16:41:01;19.60;99.90
1165;DHT22;571;50.930;6.926;2022-09-09T16:43:27;19.60;99.90
1165;DHT22;571;50.930;6.926;2022-09-09T16:45:54;19.50;99.90
1165;DHT22;571;50.930;6.926;2022-09-09T16:48:21;19.60;99.90
1165;DHT22;571;50.930;6.926;2022-09-09T16:50:48;19.70;99.90
1165;DHT22;571;50.930;6.926;2022-09-09T16:53:15;19.80;99.90
1165;DHT22;571;50.930;6.926;2022-09-09T16:55:42;19.70;99.90
1165;DHT22;571;50.930;6.926;2022-09-09T16:58:11;19.80;99.90
1165;DHT22;571;50.930;6.926;2022-09-09T17:00:38;19.90;99.90
1165;DHT22;571;50.930;6.926;2022-09-09T17:03:05;19.90;99.90
1165;DHT22;571;50.930;6.926;2022-09-09T17:05:31;20.00;99.90
1165;DHT22;571;50.930;6.926;2022-09-09T17:07:59;20.00;99.90
1165;DHT22;571;50.930;6.926;2022-09-09T17:10:25;20.10;99.90
1165;DHT22;571;50.930;6.926;2022-09-09T17:12:52;20.20;99.90
1165;DHT22;571;50.930;6.926;2022-09-09T17:15:20;20.10;99.90
1165;DHT22;571;50.930;6.926;2022-09-09T17:17:49;19.90;99.90
1165;DHT22;571;50.930;6.926;2022-09-09T17:20:18;19.90;99.90
1165;DHT22;571;50.930;6.926;2022-09-09T17:22:45;19.80;99.90
1165;DHT22;571;50.930;6.926;2022-09-09T17:25:12;19.70;99.90
1165;DHT22;571;50.930;6.926;2022-09-09T17:27:38;19.80;99.90
1165;DHT22;571;50.930;6.926;2022-09-09T17:30:06;19.90;99.90
1165;DHT22;571;50.930;6.926;2022-09-09T17:32:34;19.80;99.90
1165;DHT22;571;50.930;6.926;2022-09-09T17:35:02;19.70;99.90
1165;DHT22;571;50.930;6.926;2022-09-09T17:37:31;19.70;99.90
1165;DHT22;571;50.930;6.926;2022-09-09T17:39:58;19.70;99.90
1165;DHT22;571;50.930;6.926;2022-09-09T17:42:24;19.60;99.90
1165;DHT22;571;50.930;6.926;2022-09-09T17:44:51;19.50;99.90
1165;DHT22;571;50.930;6.926;2022-09-09T17:47:18;19.50;99.90
1165;DHT22;571;50.930;6.926;2022-09-09T17:49:46;19.70;99.90
1165;DHT22;571;50.930;6.926;2022-09-09T17:52:13;19.70;99.90
1165;DHT22;571;50.930;6.926;2022-09-09T17:54:41;19.70;99.90
1165;DHT22;571;50.930;6.926;2022-09-09T17:57:08;19.50;99.90
1165;DHT22;571;50.930;6.926;2022-09-09T17:59:35;19.50;99.90
1165;DHT22;571;50.930;6.926;2022-09-09T18:02:02;19.50;99.90
1165;DHT22;571;50.930;6.926;2022-09-09T18:04:30;19.50;99.90
1165;DHT22;571;50.930;6.926;2022-09-09T18:06:58;19.50;99.90
1165;DHT22;571;50.930;6.926;2022-09-09T18:09:26;19.50;99.90
1165;DHT22;571;50.930;6.926;2022-09-09T18:11:55;19.50;99.90
1165;DHT22;571;50.930;6.926;2022-09-09T18:14:24;19.50;99.90
1165;DHT22;571;50.930;6.926;2022-09-09T18:16:51;19.60;99.90
1165;DHT22;571;50.930;6.926;2022-09-09T18:19:20;19.60;99.90
1165;DHT22;571;50.930;6.926;2022-09-09T18:21:47;19.60;99.90
1165;DHT22;571;50.930;6.926;2022-09-09T18:24:18;19.50;99.90
1165;DHT22;571;50.930;6.926;2022-09-09T18:26:45;19.40;99.90
1165;DHT22;571;50.930;6.926;2022-09-09T18:29:14;19.40;99.90
1165;DHT22;571;50.930;6.926;2022-09-09T18:31:41;19.30;99.90
1165;DHT22;571;50.930;6.926;2022-09-09T18:34:09;19.10;99.90
1165;DHT22;571;50.930;6.926;2022-09-09T18:36:39;19.00;99.90
1165;DHT22;571;50.930;6.926;2022-09-09T18:39:07;19.00;99.90
1165;DHT22;571;50.930;6.926;2022-09-09T18:41:37;18.90;99.90
1165;DHT22;571;50.930;6.926;2022-09-09T18:44:06;19.00;99.90
1165;DHT22;571;50.930;6.926;2022-09-09T18:46:34;18.90;99.90
1165;DHT22;571;50.930;6.926;2022-09-09T18:49:03;19.00;99.90
1165;DHT22;571;50.930;6.926;2022-09-09T18:51:31;18.90;99.90
1165;DHT22;571;50.930;6.926;2022-09-09T18:54:02;18.90;99.90
1165;DHT22;571;50.930;6.926;2022-09-09T18:56:30;18.90;99.90
1165;DHT22;571;50.930;6.926;2022-09-09T18:59:00;18.90;99.90
1165;DHT22;571;50.930;6.926;2022-09-09T19:01:27;18.90;99.90
1165;DHT22;571;50.930;6.926;2022-09-09T19:03:55;18.80;99.90
1165;DHT22;571;50.930;6.926;2022-09-09T19:06:24;18.80;99.90
1165;DHT22;571;50.930;6.926;2022-09-09T19:08:52;18.70;99.90
1165;DHT22;571;50.930;6.926;2022-09-09T19:11:21;18.70;99.90
1165;DHT22;571;50.930;6.926;2022-09-09T19:13:50;18.60;99.90
1165;DHT22;571;50.930;6.926;2022-09-09T19:16:20;18.60;99.90
1165;DHT22;571;50.930;6.926;2022-09-09T19:18:48;18.50;99.90
1165;DHT22;571;50.930;6.926;2022-09-09T19:21:18;18.40;99.90
1165;DHT22;571;50.930;6.926;2022-09-09T19:23:52;18.20;99.90
1165;DHT22;571;50.930;6.926;2022-09-09T19:26:19;18.20;99.90
1165;DHT22;571;50.930;6.926;2022-09-09T19:28:49;18.10;99.90
1165;DHT22;571;50.930;6.926;2022-09-09T19:31:19;18.20;99.90
1165;DHT22;571;50.930;6.926;2022-09-09T19:33:47;18.20;99.90
1165;DHT22;571;50.930;6.926;2022-09-09T19:36:17;18.10;99.90
1165;DHT22;571;50.930;6.926;2022-09-09T19:38:46;18.00;99.90
1165;DHT22;571;50.930;6.926;2022-09-09T19:41:15;18.10;99.90
1165;DHT22;571;50.930;6.926;2022-09-09T19:43:43;18.00;99.90
1165;DHT22;571;50.930;6.926;2022-09-09T19:46:12;18.00;99.90
1165;DHT22;571;50.930;6.926;2022-09-09T19:48:42;17.90;99.90
1165;DHT22;571;50.930;6.926;2022-09-09T19:51:10;17.90;99.90
1165;DHT22;571;50.930;6.926;2022-09-09T19:53:39;17.90;99.90
1165;DHT22;571;50.930;6.926;2022-09-09T19:56:07;17.90;99.90
1165;DHT22;571;50.930;6.926;2022-09-09T19:58:36;17.90;99.90
1165;DHT22;571;50.930;6.926;2022-09-09T20:01:05;17.90;99.90
1165;DHT22;571;50.930;6.926;2022-09-09T20:03:33;17.90;99.90
1165;DHT22;571;50.930;6.926;2022-09-09T20:06:02;17.90;99.90
1165;DHT22;571;50.930;6.926;2022-09-09T20:08:30;18.00;99.90
1165;DHT22;571;50.930;6.926;2022-09-09T20:10:56;18.00;99.90
1165;DHT22;571;50.930;6.926;2022-09-09T20:13:24;17.90;99.90
1165;DHT22;571;50.930;6.926;2022-09-09T20:15:57;17.80;99.90
1165;DHT22;571;50.930;6.926;2022-09-09T20:18:27;17.90;99.90
1165;DHT22;571;50.930;6.926;2022-09-09T20:20:56;17.90;99.90
1165;DHT22;571;50.930;6.926;2022-09-09T20:23:27;17.90;99.90
1165;DHT22;571;50.930;6.926;2022-09-09T20:25:54;17.80;99.90
1165;DHT22;571;50.930;6.926;2022-09-09T20:28:21;17.90;99.90
1165;DHT22;571;50.930;6.926;2022-09-09T20:30:49;18.10;99.90
1165;DHT22;571;50.930;6.926;2022-09-09T20:33:18;18.00;99.90
1165;DHT22;571;50.930;6.926;2022-09-09T20:35:46;18.00;99.90
1165;DHT22;571;50.930;6.926;2022-09-09T20:38:12;17.90;99.90
1165;DHT22;571;50.930;6.926;2022-09-09T20:40:40;17.90;99.90
1165;DHT22;571;50.930;6.926;2022-09-09T20:43:10;17.90;99.90
1165;DHT22;571;50.930;6.926;2022-09-09T20:45:38;17.90;99.90